Time;durP1;ratioP1;P1;durP2;ratioP2;P2;SDS_P1;SDS_P2;PMS_P1;PMS_P2;Temp;Humidity;BMP_temperature;BMP_pressure;BME280_temperature;BME280_humidity;BME280_pressure;Samples;Min_cycle;Max_cycle;Signal;HPM_P1;HPM_P2
2023/12/10 00:00:13;;;;;;;4.10;2.05;;;5.80;99.90;;;;;;5075453;28;20201;-65
2023/12/10 00:02:40;;;;;;;3.83;2.38;;;5.80;99.90;;;;;;5075323;28;20232;-64
2023/12/10 00:05:07;;;;;;;4.10;2.85;;;5.90;99.90;;;;;;5075516;28;20289;-65
2023/12/10 00:07:34;;;;;;;4.70;2.70;;;6.00;99.90;;;;;;5075664;28;20270;-64
2023/12/10 00:10:01;;;;;;;3.20;2.47;;;6.00;99.90;;;;;;5074954;28;20200;-65
2023/12/10 00:12:30;;;;;;;6.32;2.85;;;6.10;99.90;;;;;;5074618;28;20323;-64
2023/12/10 00:14:57;;;;;;;5.75;3.10;;;6.20;99.90;;;;;;5075216;28;20207;-64
2023/12/10 00:17:24;;;;;;;8.55;3.33;;;6.20;99.90;;;;;;5075411;28;20308;-64
2023/12/10 00:19:51;;;;;;;6.20;3.38;;;6.30;99.90;;;;;;5074647;28;20207;-64
2023/12/10 00:22:18;;;;;;;7.75;3.80;;;6.30;99.90;;;;;;5074171;28;20252;-62
2023/12/10 00:24:45;;;;;;;6.18;3.70;;;6.40;99.90;;;;;;5074500;28;20288;-64
2023/12/10 00:27:12;;;;;;;7.75;3.50;;;6.40;99.90;;;;;;5074810;28;20239;-64
2023/12/10 00:29:40;;;;;;;12.23;4.18;;;6.50;99.90;;;;;;5079458;28;20228;-63
2023/12/10 00:32:07;;;;;;;9.73;5.25;;;6.50;99.90;;;;;;5080139;28;20825;-64
2023/12/10 00:34:34;;;;;;;11.85;5.30;;;6.60;99.90;;;;;;5079443;28;20288;-63
2023/12/10 00:37:01;;;;;;;20.70;6.53;;;6.60;99.90;;;;;;5078704;28;20224;-64
2023/12/10 00:39:28;;;;;;;12.23;5.93;;;6.70;99.90;;;;;;5078777;28;20226;-65
2023/12/10 00:41:55;;;;;;;19.92;6.57;;;6.80;99.90;;;;;;5078980;28;20221;-63
2023/12/10 00:44:22;;;;;;;16.92;6.50;;;6.80;99.90;;;;;;5079794;28;20197;-64
2023/12/10 00:46:50;;;;;;;14.02;6.68;;;7.00;99.90;;;;;;5081120;28;20299;-65
2023/12/10 00:49:18;;;;;;;16.50;5.93;;;7.10;99.90;;;;;;5079049;28;20698;-62
2023/12/10 00:51:44;;;;;;;19.70;7.50;;;7.20;99.90;;;;;;5077756;28;20632;-65
2023/12/10 00:54:11;;;;;;;13.77;5.55;;;7.30;99.90;;;;;;5077731;28;20205;-65
2023/12/10 00:56:38;;;;;;;22.98;5.70;;;7.40;99.90;;;;;;5077727;28;20211;-64
2023/12/10 00:59:05;;;;;;;18.40;6.10;;;7.50;99.90;;;;;;5078073;28;20221;-64
2023/12/10 01:01:32;;;;;;;17.70;5.68;;;7.50;99.90;;;;;;5080433;28;20229;-64
2023/12/10 01:04:00;;;;;;;11.07;5.63;;;7.60;99.90;;;;;;5087193;28;20284;-65
2023/12/10 01:06:27;;;;;;;14.70;5.25;;;7.70;99.90;;;;;;5079363;28;20264;-65
2023/12/10 01:08:53;;;;;;;16.33;5.97;;;7.80;99.90;;;;;;5079045;28;20675;-64
2023/12/10 01:11:20;;;;;;;13.90;4.95;;;7.80;99.90;;;;;;5079681;28;20212;-65
2023/12/10 01:13:47;;;;;;;11.43;3.67;;;7.90;99.90;;;;;;5080269;28;20204;-64
2023/12/10 01:16:16;;;;;;;20.98;5.30;;;7.90;99.90;;;;;;5080131;28;20561;-63
2023/12/10 01:18:43;;;;;;;14.05;4.05;;;8.00;99.90;;;;;;5079605;28;20220;-63
2023/12/10 01:21:12;;;;;;;15.85;4.15;;;8.00;99.90;;;;;;5079114;28;20689;-64
2023/12/10 01:23:39;;;;;;;11.65;3.75;;;8.00;99.90;;;;;;5079205;28;20208;-63
2023/12/10 01:26:06;;;;;;;8.05;3.50;;;8.00;99.90;;;;;;5079081;28;20204;-64
2023/12/10 01:28:33;;;;;;;14.43;3.90;;;8.00;99.90;;;;;;5079399;28;20230;-63
2023/12/10 01:31:00;;;;;;;19.08;4.38;;;8.10;99.90;;;;;;5078201;28;20201;-66
2023/12/10 01:33:27;;;;;;;9.48;3.88;;;8.10;99.90;;;;;;5078238;28;20360;-65
2023/12/10 01:35:53;;;;;;;11.95;3.92;;;8.20;99.90;;;;;;5079207;28;20229;-64
2023/12/10 01:38:22;;;;;;;14.70;3.95;;;8.30;99.90;;;;;;5080052;28;20698;-63
2023/12/10 01:40:49;;;;;;;18.90;3.70;;;8.30;99.90;;;;;;5078729;28;20581;-66
2023/12/10 01:43:17;;;;;;;20.20;4.50;;;8.30;99.90;;;;;;5077573;28;20221;-65
2023/12/10 01:45:48;;;;;;;11.55;3.30;;;8.30;99.90;;;;;;5077208;28;20259;-64
2023/12/10 01:48:16;;;;;;;10.73;4.20;;;8.20;99.90;;;;;;5077500;28;20185;-65
2023/12/10 01:50:44;;;;;;;13.23;3.10;;;8.20;99.90;;;;;;5077011;28;20303;-64
2023/12/10 01:53:11;;;;;;;10.68;3.38;;;8.30;99.90;;;;;;5076524;28;20734;-64
2023/12/10 01:55:40;;;;;;;16.77;3.38;;;8.20;99.90;;;;;;5076286;28;20240;-64
2023/12/10 01:58:07;;;;;;;16.00;3.50;;;8.30;99.90;;;;;;5076477;28;20366;-64
2023/12/10 02:00:35;;;;;;;12.77;3.20;;;8.30;99.90;;;;;;5076479;28;20196;-65
2023/12/10 02:03:03;;;;;;;11.80;3.60;;;8.30;99.90;;;;;;5076132;28;20221;-64
2023/12/10 02:05:30;;;;;;;14.23;4.10;;;8.30;99.90;;;;;;5075555;28;20579;-65
2023/12/10 02:07:57;;;;;;;17.55;3.70;;;8.30;99.90;;;;;;5076091;28;20570;-65
2023/12/10 02:10:23;;;;;;;16.80;4.50;;;8.30;99.90;;;;;;5076253;28;20201;-65
2023/12/10 02:12:53;;;;;;;19.77;4.22;;;8.30;99.90;;;;;;5076463;28;20308;-64
2023/12/10 02:15:21;;;;;;;13.07;3.88;;;8.20;99.90;;;;;;5076383;28;20234;-65
2023/12/10 02:17:49;;;;;;;16.67;4.32;;;8.20;99.90;;;;;;5075796;28;20229;-64
2023/12/10 02:20:17;;;;;;;13.25;3.45;;;8.20;99.90;;;;;;5075280;28;20212;-65
2023/12/10 02:22:52;;;;;;;15.60;4.80;;;8.10;99.90;;;;;;5075422;28;20263;-64
2023/12/10 02:25:23;;;;;;;18.00;5.05;;;8.20;99.90;;;;;;5075599;28;20227;-64
2023/12/10 02:27:51;;;;;;;15.65;3.95;;;8.10;99.90;;;;;;5076100;28;20186;-64
2023/12/10 02:30:18;;;;;;;16.90;4.35;;;8.10;99.90;;;;;;5075749;28;20296;-65
2023/12/10 02:32:45;;;;;;;21.98;4.50;;;8.10;99.90;;;;;;5075259;28;20307;-65
2023/12/10 02:35:12;;;;;;;16.77;4.60;;;8.00;99.90;;;;;;5079211;28;20284;-64
2023/12/10 02:37:39;;;;;;;22.45;4.68;;;8.00;99.90;;;;;;5074898;28;20311;-61
2023/12/10 02:40:08;;;;;;;21.25;5.05;;;8.00;99.90;;;;;;5075260;28;20197;-65
2023/12/10 02:42:35;;;;;;;23.70;5.07;;;7.90;99.90;;;;;;5077161;28;20221;-64
2023/12/10 02:45:03;;;;;;;16.30;4.82;;;7.90;99.90;;;;;;5075352;28;20200;-65
2023/12/10 02:47:30;;;;;;;22.23;5.32;;;7.80;99.90;;;;;;5077726;28;20296;-64
2023/12/10 02:49:57;;;;;;;17.27;4.15;;;7.70;99.90;;;;;;5075757;28;20244;-65
2023/12/10 02:52:24;;;;;;;21.10;5.07;;;7.70;99.90;;;;;;5080548;28;20256;-65
2023/12/10 02:54:51;;;;;;;18.42;5.68;;;7.70;99.90;;;;;;5074673;28;20713;-64
2023/12/10 02:57:18;;;;;;;12.32;4.25;;;7.70;99.90;;;;;;5074892;28;20201;-64
2023/12/10 02:59:44;;;;;;;17.20;4.53;;;7.70;99.90;;;;;;5074486;28;20231;-65
2023/12/10 03:02:13;;;;;;;10.18;3.65;;;7.70;99.90;;;;;;5072741;22;20747;-62
2023/12/10 03:04:39;;;;;;;14.75;5.07;;;7.70;99.90;;;;;;5034348;28;20233;-61
2023/12/10 03:07:06;;;;;;;23.02;4.57;;;7.70;99.90;;;;;;5033978;28;20672;-62
2023/12/10 03:09:33;;;;;;;16.30;4.78;;;7.80;99.90;;;;;;5034130;28;20293;-62
2023/12/10 03:12:00;;;;;;;16.23;4.85;;;7.80;99.90;;;;;;5034255;28;20253;-61
2023/12/10 03:14:27;;;;;;;14.30;4.18;;;7.80;99.90;;;;;;5034518;28;20203;-60
2023/12/10 03:16:54;;;;;;;22.98;5.18;;;7.80;99.90;;;;;;5034341;28;20207;-61
2023/12/10 03:19:22;;;;;;;18.67;4.70;;;7.90;99.90;;;;;;5034143;28;20317;-62
2023/12/10 03:21:48;;;;;;;18.40;5.35;;;7.90;99.90;;;;;;5034717;28;20309;-62
2023/12/10 03:24:15;;;;;;;19.75;4.35;;;8.00;99.90;;;;;;5034229;28;20244;-61
2023/12/10 03:26:42;;;;;;;15.20;3.83;;;8.00;99.90;;;;;;5034375;28;20206;-61
2023/12/10 03:29:09;;;;;;;17.63;4.90;;;8.00;99.90;;;;;;5035046;28;20207;-61
2023/12/10 03:31:36;;;;;;;25.20;5.20;;;8.00;99.90;;;;;;5039492;28;20229;-62
2023/12/10 03:34:03;;;;;;;16.70;5.65;;;8.00;99.90;;;;;;5040374;28;20304;-61
2023/12/10 03:36:31;;;;;;;16.60;5.15;;;8.00;99.90;;;;;;5040860;28;20601;-62
2023/12/10 03:38:58;;;;;;;23.83;4.88;;;8.00;99.90;;;;;;5040266;28;20229;-62
2023/12/10 03:41:24;;;;;;;20.38;5.82;;;8.00;99.90;;;;;;5036398;28;20290;-62
2023/12/10 03:43:51;;;;;;;14.35;4.85;;;8.10;99.90;;;;;;5035885;28;20275;-62
2023/12/10 03:46:18;;;;;;;10.75;4.20;;;8.10;99.90;;;;;;5036062;28;20221;-62
2023/12/10 03:48:45;;;;;;;19.00;5.03;;;8.00;99.90;;;;;;5035826;28;20201;-62
2023/12/10 03:51:12;;;;;;;15.38;4.57;;;8.00;99.90;;;;;;5036051;28;20268;-63
2023/12/10 03:53:40;;;;;;;21.70;4.78;;;7.90;99.90;;;;;;5034317;28;20289;-62
2023/12/10 03:56:09;;;;;;;16.85;4.85;;;7.90;99.90;;;;;;5034167;28;20289;-62
2023/12/10 03:58:36;;;;;;;15.95;5.22;;;7.90;99.90;;;;;;5033881;28;20280;-62
2023/12/10 04:01:03;;;;;;;17.52;4.90;;;7.90;99.90;;;;;;5033635;28;20230;-63
2023/12/10 04:03:30;;;;;;;15.82;4.45;;;7.90;99.90;;;;;;5033416;28;20308;-62
2023/12/10 04:05:57;;;;;;;17.98;5.10;;;7.90;99.90;;;;;;5033673;28;20209;-62
2023/12/10 04:08:24;;;;;;;20.35;5.15;;;8.00;99.90;;;;;;5033102;28;20762;-61
2023/12/10 04:12:44;;;;;;;20.40;4.90;;;8.10;99.90;;;;;;5091788;28;20561;-62
2023/12/10 04:15:11;;;;;;;19.00;6.25;;;8.10;99.90;;;;;;5091684;28;20200;-64
2023/12/10 04:17:38;;;;;;;27.10;6.10;;;8.10;99.90;;;;;;5092259;28;20203;-63
2023/12/10 04:20:07;;;;;;;19.65;5.45;;;8.10;99.90;;;;;;5092086;28;20641;-63
2023/12/10 04:22:34;;;;;;;17.45;5.18;;;8.10;99.90;;;;;;5099987;28;20248;-62
2023/12/10 04:25:01;;;;;;;18.08;5.85;;;8.00;99.90;;;;;;5112529;22;20316;-65
2023/12/10 04:27:28;;;;;;;15.20;4.85;;;8.00;99.90;;;;;;5050566;28;20200;-65
2023/12/10 04:29:56;;;;;;;16.20;4.88;;;8.00;99.90;;;;;;5051734;28;20205;-65
2023/12/10 04:32:23;;;;;;;12.88;4.72;;;7.90;99.90;;;;;;5051867;28;20316;-65
2023/12/10 04:34:50;;;;;;;12.70;5.05;;;7.90;99.90;;;;;;5053039;28;20226;-65
2023/12/10 04:37:17;;;;;;;10.93;4.15;;;7.80;99.90;;;;;;5054584;28;20226;-64
2023/12/10 04:39:45;;;;;;;14.32;4.72;;;7.80;99.90;;;;;;5054672;28;20206;-64
2023/12/10 04:42:11;;;;;;;12.45;4.95;;;7.70;99.90;;;;;;5054074;28;20202;-62
2023/12/10 04:44:38;;;;;;;13.93;5.07;;;7.70;99.90;;;;;;5052266;28;20288;-64
2023/12/10 04:47:07;;;;;;;16.02;5.85;;;7.60;99.90;;;;;;5057729;28;20288;-64
2023/12/10 04:49:34;;;;;;;21.67;5.07;;;7.60;99.90;;;;;;5059543;28;20237;-65
2023/12/10 04:52:01;;;;;;;16.85;5.60;;;7.60;99.90;;;;;;5059069;28;20214;-65
2023/12/10 04:54:28;;;;;;;13.52;5.40;;;7.60;99.90;;;;;;5060008;28;20206;-65
2023/12/10 04:56:54;;;;;;;17.50;4.70;;;7.60;99.90;;;;;;5060545;28;20240;-64
2023/12/10 04:59:21;;;;;;;14.40;5.50;;;7.60;99.90;;;;;;5060997;28;20289;-65
2023/12/10 05:01:48;;;;;;;16.17;5.85;;;7.60;99.90;;;;;;5069221;22;20766;-62
2023/12/10 05:04:17;;;;;;;17.20;5.63;;;7.60;99.90;;;;;;5050867;28;20241;-62
2023/12/10 05:06:44;;;;;;;12.02;5.22;;;7.50;99.90;;;;;;5049874;28;20211;-62
2023/12/10 05:09:11;;;;;;;18.63;5.30;;;7.50;99.90;;;;;;5049880;28;20289;-62
2023/12/10 05:11:38;;;;;;;14.93;5.72;;;7.50;99.90;;;;;;5049506;28;20313;-62
2023/12/10 05:14:06;;;;;;;13.05;5.07;;;7.50;99.90;;;;;;5051902;28;20248;-62
2023/12/10 05:16:33;;;;;;;18.08;5.40;;;7.50;99.90;;;;;;5050519;28;20237;-63
2023/12/10 05:19:00;;;;;;;12.85;5.18;;;7.50;99.90;;;;;;5050109;28;20284;-62
2023/12/10 05:21:29;;;;;;;15.60;5.07;;;7.50;99.90;;;;;;5049994;28;20256;-62
2023/12/10 05:23:56;;;;;;;17.15;5.75;;;7.60;99.90;;;;;;5037418;28;20206;-62
2023/12/10 05:26:23;;;;;;;10.23;5.00;;;7.60;99.90;;;;;;5036958;28;20297;-62
2023/12/10 05:28:50;;;;;;;12.40;4.72;;;7.60;99.90;;;;;;5037042;28;20652;-62
2023/12/10 05:31:17;;;;;;;11.82;5.28;;;7.60;99.90;;;;;;5036935;28;20309;-62
2023/12/10 05:33:43;;;;;;;13.20;5.78;;;7.60;99.90;;;;;;5037056;28;20230;-61
2023/12/10 05:36:10;;;;;;;13.52;5.20;;;7.60;99.90;;;;;;5038207;28;20244;-62
2023/12/10 05:38:39;;;;;;;11.57;4.40;;;7.60;99.90;;;;;;5036735;28;20262;-62
2023/12/10 05:41:06;;;;;;;16.65;5.00;;;7.70;99.90;;;;;;5036510;28;20228;-62
2023/12/10 05:43:33;;;;;;;13.38;4.45;;;7.70;99.90;;;;;;5036649;28;20289;-63
2023/12/10 05:46:00;;;;;;;9.98;3.47;;;7.70;99.90;;;;;;5036365;28;20612;-62
2023/12/10 05:48:27;;;;;;;8.55;4.28;;;7.70;99.90;;;;;;5036290;28;20226;-62
2023/12/10 05:50:54;;;;;;;6.03;3.45;;;7.70;99.90;;;;;;5036150;28;20241;-62
2023/12/10 05:53:21;;;;;;;5.20;2.50;;;7.80;99.90;;;;;;5036368;28;20228;-62
2023/12/10 05:55:49;;;;;;;8.75;3.28;;;7.80;99.90;;;;;;5040708;28;20274;-62
2023/12/10 05:58:16;;;;;;;6.30;2.70;;;7.80;99.90;;;;;;5043784;28;20660;-63
2023/12/10 06:00:43;;;;;;;12.45;2.58;;;7.80;99.90;;;;;;5041002;28;20209;-64
2023/12/10 06:03:10;;;;;;;8.20;2.83;;;7.80;99.90;;;;;;5036149;28;20229;-62
2023/12/10 06:05:37;;;;;;;8.27;3.40;;;7.80;99.90;;;;;;5035804;28;20233;-62
2023/12/10 06:08:04;;;;;;;6.93;2.58;;;7.80;99.90;;;;;;5037204;28;20233;-62
2023/12/10 06:10:31;;;;;;;4.68;2.92;;;7.80;99.90;;;;;;5038712;28;20203;-62
2023/12/10 06:12:59;;;;;;;5.13;2.03;;;7.70;99.90;;;;;;5036274;28;20574;-62
2023/12/10 06:15:26;;;;;;;12.98;2.72;;;7.70;99.90;;;;;;5035335;28;20748;-62
2023/12/10 06:17:53;;;;;;;6.90;2.38;;;7.60;99.90;;;;;;5035409;28;20238;-62
2023/12/10 06:20:19;;;;;;;6.40;2.78;;;7.50;99.90;;;;;;5035388;28;20206;-62
2023/12/10 06:22:46;;;;;;;6.90;2.60;;;7.50;99.90;;;;;;5035503;28;20309;-63
2023/12/10 06:25:13;;;;;;;5.65;2.50;;;7.40;99.90;;;;;;5035145;28;20214;-62
2023/12/10 06:27:40;;;;;;;7.13;2.60;;;7.40;99.90;;;;;;5035157;28;20241;-61
2023/12/10 06:30:09;;;;;;;5.13;2.22;;;7.30;99.90;;;;;;5035311;28;20241;-61
2023/12/10 06:32:36;;;;;;;4.38;2.40;;;7.30;99.90;;;;;;5034935;28;20309;-63
2023/12/10 06:35:03;;;;;;;6.00;2.50;;;7.30;99.90;;;;;;5034395;28;20217;-62
2023/12/10 06:37:32;;;;;;;5.93;2.53;;;7.20;99.90;;;;;;5034945;28;20680;-62
2023/12/10 06:39:58;;;;;;;5.40;2.60;;;7.20;99.90;;;;;;5035296;28;20548;-62
2023/12/10 06:42:27;;;;;;;7.80;2.70;;;7.20;99.90;;;;;;5034645;28;20389;-61
2023/12/10 06:44:54;;;;;;;4.60;2.45;;;7.10;99.90;;;;;;5036270;28;20205;-61
2023/12/10 06:47:22;;;;;;;5.80;2.70;;;7.10;99.90;;;;;;5035411;28;20229;-61
2023/12/10 06:49:49;;;;;;;3.63;2.42;;;7.00;99.90;;;;;;5036263;28;20241;-62
2023/12/10 06:52:17;;;;;;;7.00;2.25;;;7.00;99.90;;;;;;5034526;28;20309;-62
2023/12/10 06:54:44;;;;;;;10.27;3.00;;;7.00;99.90;;;;;;5034616;28;20203;-61
2023/12/10 06:57:11;;;;;;;5.47;2.80;;;7.00;99.90;;;;;;5035244;28;20198;-62
2023/12/10 06:59:38;;;;;;;5.53;2.80;;;7.00;99.90;;;;;;5034414;28;20293;-62
2023/12/10 07:02:05;;;;;;;5.07;2.80;;;6.90;99.90;;;;;;5034502;28;20234;-62
2023/12/10 07:04:33;;;;;;;6.40;2.35;;;6.90;99.90;;;;;;5034252;28;20294;-62
2023/12/10 07:07:00;;;;;;;4.95;2.72;;;6.90;99.90;;;;;;5033883;28;20337;-62
2023/12/10 07:09:27;;;;;;;8.10;2.40;;;6.90;99.90;;;;;;5033916;28;20772;-62
2023/12/10 07:11:54;;;;;;;4.95;2.28;;;6.90;99.90;;;;;;5033726;28;20684;-62
2023/12/10 07:14:21;;;;;;;5.28;2.60;;;6.90;99.90;;;;;;5034389;28;20690;-62
2023/12/10 07:16:47;;;;;;;9.05;2.53;;;6.90;99.90;;;;;;5034706;28;20633;-61
2023/12/10 07:19:14;;;;;;;12.57;2.97;;;6.90;99.90;;;;;;5035415;28;20225;-62
2023/12/10 07:21:42;;;;;;;5.35;3.10;;;6.90;99.90;;;;;;5035400;28;20277;-62
2023/12/10 07:24:09;;;;;;;3.80;2.28;;;7.00;99.90;;;;;;5034103;28;20294;-62
2023/12/10 07:26:36;;;;;;;5.63;2.42;;;7.00;99.90;;;;;;5034075;28;20530;-62
2023/12/10 07:29:03;;;;;;;7.47;2.30;;;7.00;99.90;;;;;;5034029;28;20645;-61
2023/12/10 07:31:31;;;;;;;4.22;2.53;;;7.00;99.90;;;;;;5033491;28;20246;-62
2023/12/10 07:33:57;;;;;;;4.30;2.30;;;7.00;99.90;;;;;;5033811;28;20213;-61
2023/12/10 07:36:24;;;;;;;4.18;2.00;;;7.00;99.90;;;;;;5033607;28;20297;-60
2023/12/10 07:38:52;;;;;;;3.80;1.90;;;7.00;99.90;;;;;;5034050;28;20249;-61
2023/12/10 07:41:19;;;;;;;6.82;1.95;;;7.10;99.90;;;;;;5034267;28;20226;-61
2023/12/10 07:43:47;;;;;;;3.30;2.30;;;7.10;99.90;;;;;;5036367;28;20293;-61
2023/12/10 07:46:14;;;;;;;4.07;2.15;;;7.10;99.90;;;;;;5035699;28;20210;-61
2023/12/10 07:48:41;;;;;;;4.85;2.00;;;7.10;99.90;;;;;;5034369;28;20241;-62
2023/12/10 07:51:08;;;;;;;9.02;3.72;;;7.20;99.90;;;;;;5035641;28;20254;-62
2023/12/10 07:53:35;;;;;;;3.35;1.80;;;7.20;99.90;;;;;;5033148;28;20704;-62
2023/12/10 07:56:03;;;;;;;5.13;2.05;;;7.20;99.90;;;;;;5033416;28;20244;-62
2023/12/10 07:58:30;;;;;;;6.45;2.40;;;7.30;99.90;;;;;;5033229;28;20349;-63
2023/12/10 08:00:57;;;;;;;3.75;2.10;;;7.30;99.90;;;;;;5032974;28;20285;-61
2023/12/10 08:03:24;;;;;;;6.57;2.03;;;7.30;99.90;;;;;;5032878;28;20185;-60
2023/12/10 08:05:51;;;;;;;3.80;2.45;;;7.20;99.90;;;;;;5033331;28;20198;-62
2023/12/10 08:08:18;;;;;;;4.45;1.75;;;7.20;99.90;;;;;;5032795;28;20656;-62
2023/12/10 08:10:46;;;;;;;5.32;2.28;;;7.20;99.90;;;;;;5032963;28;20578;-62
2023/12/10 08:13:14;;;;;;;3.70;2.35;;;7.30;99.90;;;;;;5033403;28;20249;-62
2023/12/10 08:15:41;;;;;;;4.03;1.90;;;7.30;99.90;;;;;;5032855;28;20692;-64
2023/12/10 08:18:08;;;;;;;3.30;1.73;;;7.30;99.90;;;;;;5033049;28;20209;-63
2023/12/10 08:20:35;;;;;;;2.05;1.52;;;7.30;99.90;;;;;;5032966;28;20234;-62
2023/12/10 08:23:02;;;;;;;7.00;2.20;;;7.40;99.90;;;;;;5032563;28;20708;-62
2023/12/10 08:25:29;;;;;;;4.18;1.60;;;7.40;99.90;;;;;;5032965;28;20260;-63
2023/12/10 08:27:56;;;;;;;5.50;1.75;;;7.40;99.90;;;;;;5033380;28;20292;-62
2023/12/10 08:30:24;;;;;;;10.90;2.30;;;7.50;99.90;;;;;;5040200;28;20289;-62
2023/12/10 08:32:51;;;;;;;6.22;1.58;;;7.50;99.90;;;;;;5037928;28;20227;-63
2023/12/10 08:35:18;;;;;;;4.82;1.90;;;7.50;99.90;;;;;;5036157;28;20658;-63
2023/12/10 08:37:45;;;;;;;5.05;2.00;;;7.50;99.90;;;;;;5036806;28;20233;-62
2023/12/10 08:40:12;;;;;;;6.63;2.10;;;7.40;99.90;;;;;;5034674;28;20293;-63
2023/12/10 08:42:39;;;;;;;4.28;2.03;;;7.30;99.90;;;;;;5033656;28;20277;-62
2023/12/10 08:45:08;;;;;;;5.10;2.60;;;7.30;99.90;;;;;;5033297;28;20202;-62
2023/12/10 08:47:36;;;;;;;6.18;2.47;;;7.20;99.90;;;;;;5033330;28;20332;-62
2023/12/10 08:50:04;;;;;;;7.07;2.88;;;7.20;99.90;;;;;;5032907;28;20293;-62
2023/12/10 08:52:30;;;;;;;5.20;2.40;;;7.20;99.90;;;;;;5032779;28;20317;-61
2023/12/10 08:54:58;;;;;;;5.75;2.17;;;7.20;99.90;;;;;;5032621;28;20747;-62
2023/12/10 08:57:25;;;;;;;5.90;2.30;;;7.20;99.90;;;;;;5034144;28;20211;-61
2023/12/10 08:59:52;;;;;;;8.50;2.47;;;7.10;99.90;;;;;;5036401;28;20629;-62
2023/12/10 09:02:20;;;;;;;8.27;2.92;;;7.10;99.90;;;;;;5036169;28;20312;-63
2023/12/10 09:04:48;;;;;;;3.80;2.00;;;7.10;99.90;;;;;;5036093;28;20240;-61
2023/12/10 09:07:15;;;;;;;9.65;3.05;;;7.10;99.90;;;;;;5036525;28;20288;-60
2023/12/10 09:09:41;;;;;;;5.97;2.40;;;7.20;99.90;;;;;;5036499;28;20237;-63
2023/12/10 09:12:08;;;;;;;10.30;2.50;;;7.20;99.90;;;;;;5037048;28;20329;-63
2023/12/10 09:14:36;;;;;;;5.43;2.10;;;7.20;99.90;;;;;;5036694;28;20285;-61
2023/12/10 09:17:03;;;;;;;11.25;2.40;;;7.20;99.90;;;;;;5036303;28;20202;-62
2023/12/10 09:19:31;;;;;;;5.55;2.53;;;7.30;99.90;;;;;;5035887;28;20724;-61
2023/12/10 09:22:00;;;;;;;5.65;2.15;;;7.30;99.90;;;;;;5036031;28;20228;-61
2023/12/10 09:24:27;;;;;;;4.90;2.60;;;7.40;99.90;;;;;;5036521;28;20202;-61
2023/12/10 09:26:56;;;;;;;4.90;2.20;;;7.40;99.90;;;;;;5035857;28;20230;-61
2023/12/10 09:29:23;;;;;;;8.07;2.70;;;7.50;99.90;;;;;;5039140;28;20205;-62
2023/12/10 09:31:49;;;;;;;5.43;2.17;;;7.60;99.90;;;;;;5036032;28;20253;-61
2023/12/10 09:34:16;;;;;;;3.95;2.10;;;7.60;99.90;;;;;;5035751;28;20230;-62
2023/12/10 09:36:43;;;;;;;10.90;2.35;;;7.70;99.90;;;;;;5036236;28;20202;-62
2023/12/10 09:39:11;;;;;;;8.80;2.83;;;7.70;99.90;;;;;;5035539;28;20206;-62
2023/12/10 09:41:38;;;;;;;6.38;2.42;;;7.70;99.90;;;;;;5035274;28;20260;-61
2023/12/10 09:44:05;;;;;;;6.43;4.10;;;7.80;99.90;;;;;;5035911;28;20194;-61
2023/12/10 09:46:32;;;;;;;9.48;2.45;;;7.80;99.90;;;;;;5035647;28;20228;-62
2023/12/10 09:49:01;;;;;;;8.48;2.60;;;7.80;99.90;;;;;;5036046;28;20206;-62
2023/12/10 09:51:27;;;;;;;8.50;2.08;;;7.80;99.90;;;;;;5036013;28;20229;-61
2023/12/10 09:53:54;;;;;;;5.30;2.30;;;7.80;99.90;;;;;;5035994;28;20218;-62
2023/12/10 09:56:22;;;;;;;8.32;2.20;;;7.80;99.90;;;;;;5035806;28;20377;-62
2023/12/10 09:58:49;;;;;;;4.97;1.95;;;7.80;99.90;;;;;;5035437;28;20289;-62
2023/12/10 10:01:16;;;;;;;5.28;1.67;;;7.80;99.90;;;;;;5035351;28;20316;-62
2023/12/10 10:03:43;;;;;;;7.07;2.25;;;7.80;99.90;;;;;;5035953;28;20246;-61
2023/12/10 10:06:10;;;;;;;6.22;1.70;;;7.70;99.90;;;;;;5035455;28;20636;-63
2023/12/10 10:08:37;;;;;;;6.32;2.00;;;7.70;99.90;;;;;;5035434;28;20198;-62
2023/12/10 10:11:04;;;;;;;5.20;2.10;;;7.70;99.90;;;;;;5036114;28;20222;-62
2023/12/10 10:13:32;;;;;;;7.72;2.38;;;7.80;99.90;;;;;;5035879;28;20222;-63
2023/12/10 10:16:09;;;;;;;7.75;1.48;;;7.80;99.90;;;;;;5035876;28;20238;-63
2023/12/10 10:18:39;;;;;;;6.20;2.33;;;7.80;99.90;;;;;;5035470;28;20636;-62
2023/12/10 10:21:07;;;;;;;13.82;2.47;;;7.80;99.90;;;;;;5035267;28;20627;-63
2023/12/10 10:23:34;;;;;;;6.57;1.88;;;7.80;99.90;;;;;;5035448;28;20212;-62
2023/12/10 10:26:01;;;;;;;5.32;1.70;;;7.80;99.90;;;;;;5035832;28;20206;-63
2023/12/10 10:28:29;;;;;;;7.15;1.85;;;7.80;99.90;;;;;;5036151;28;20293;-63
2023/12/10 10:30:58;;;;;;;5.60;1.85;;;7.90;99.90;;;;;;5035586;28;20207;-62
2023/12/10 10:33:26;;;;;;;8.45;3.38;;;7.80;99.90;;;;;;5035246;28;20661;-63
2023/12/10 10:35:53;;;;;;;8.82;2.42;;;7.80;99.90;;;;;;5035880;28;20285;-61
2023/12/10 10:38:21;;;;;;;7.07;2.55;;;7.80;99.90;;;;;;5035206;28;20217;-61
2023/12/10 10:40:49;;;;;;;10.15;2.08;;;7.80;99.90;;;;;;5035264;28;20202;-60
2023/12/10 10:43:17;;;;;;;8.75;1.77;;;7.80;99.90;;;;;;5034825;28;20344;-62
2023/12/10 10:45:43;;;;;;;8.35;2.20;;;7.80;99.90;;;;;;5034791;28;20214;-64
2023/12/10 10:48:13;;;;;;;8.48;2.00;;;7.80;99.90;;;;;;5035274;28;20234;-63
2023/12/10 10:50:41;;;;;;;7.40;2.00;;;7.80;99.90;;;;;;5035499;28;20265;-63
2023/12/10 10:53:08;;;;;;;12.30;2.30;;;7.80;99.90;;;;;;5035095;28;20294;-62
2023/12/10 10:55:36;;;;;;;12.30;3.15;;;7.80;99.90;;;;;;5035299;28;20237;-63
2023/12/10 10:58:24;;;;;;;8.00;2.55;;;7.80;99.90;;;;;;5036523;28;20230;-63
2023/12/10 11:00:52;;;;;;;8.50;2.80;;;7.70;99.90;;;;;;5037890;28;20221;-64
2023/12/10 11:03:20;;;;;;;8.82;2.60;;;7.70;99.90;;;;;;5034705;28;20664;-63
2023/12/10 11:05:47;;;;;;;8.93;2.33;;;7.70;99.90;;;;;;5034883;28;20285;-63
2023/12/10 11:08:13;;;;;;;7.00;2.53;;;7.70;99.90;;;;;;5037201;28;20256;-63
2023/12/10 11:10:44;;;;;;;4.93;1.90;;;7.80;99.90;;;;;;5038150;28;20226;-62
2023/12/10 11:13:11;;;;;;;5.43;2.10;;;7.80;99.90;;;;;;5036148;28;20207;-63
2023/12/10 11:15:38;;;;;;;8.95;2.72;;;7.80;99.90;;;;;;5035009;28;20741;-63
2023/12/10 11:18:05;;;;;;;12.05;2.40;;;7.80;99.90;;;;;;5035738;28;20297;-64
2023/12/10 11:20:41;;;;;;;6.80;2.70;;;7.80;99.90;;;;;;5034089;28;20265;-62
2023/12/10 11:23:09;;;;;;;11.05;2.72;;;7.80;99.90;;;;;;5034225;28;20637;-62
2023/12/10 11:25:37;;;;;;;8.52;2.40;;;7.80;99.90;;;;;;5035503;28;20229;-64
2023/12/10 11:28:10;;;;;;;7.45;3.00;;;7.80;99.90;;;;;;5037959;28;20668;-62
2023/12/10 11:30:37;;;;;;;10.65;3.30;;;7.80;99.90;;;;;;5034505;28;20193;-62
2023/12/10 11:33:05;;;;;;;5.70;2.08;;;7.80;99.90;;;;;;5034236;28;20236;-63
2023/12/10 11:35:32;;;;;;;5.60;2.22;;;7.90;99.90;;;;;;5035109;28;20210;-63
2023/12/10 11:38:00;;;;;;;8.65;3.08;;;7.90;99.90;;;;;;5038577;28;20202;-63
2023/12/10 11:40:27;;;;;;;5.70;2.55;;;8.00;99.90;;;;;;5036660;28;20619;-62
2023/12/10 11:42:54;;;;;;;6.78;2.55;;;8.00;99.90;;;;;;5036910;28;20253;-61
2023/12/10 11:45:20;;;;;;;9.82;2.60;;;8.00;99.90;;;;;;5035893;28;20676;-60
2023/12/10 11:47:48;;;;;;;10.73;2.50;;;8.00;99.90;;;;;;5034448;28;20241;-63
2023/12/10 11:50:15;;;;;;;6.65;2.60;;;8.00;99.90;;;;;;5034777;28;20210;-62
2023/12/10 11:52:42;;;;;;;9.52;2.70;;;8.00;99.90;;;;;;5033993;28;20226;-62
2023/12/10 11:55:10;;;;;;;3.70;2.10;;;8.00;99.90;;;;;;5034647;28;20632;-62
2023/12/10 11:57:42;;;;;;;10.55;2.90;;;8.00;99.90;;;;;;5034381;28;20339;-61
2023/12/10 12:00:11;;;;;;;9.18;2.40;;;8.00;99.90;;;;;;5035586;28;20254;-64
2023/12/10 12:02:41;;;;;;;9.65;2.65;;;8.00;99.90;;;;;;5034273;28;20233;-63
2023/12/10 12:05:09;;;;;;;10.32;3.00;;;8.00;99.90;;;;;;5034700;28;20546;-61
2023/12/10 12:07:37;;;;;;;6.85;2.80;;;7.90;99.90;;;;;;5037297;28;20248;-61
2023/12/10 12:10:05;;;;;;;8.43;2.30;;;7.90;99.90;;;;;;5035643;28;20221;-63
2023/12/10 12:12:37;;;;;;;7.63;2.50;;;8.00;99.90;;;;;;5033320;28;20262;-62
2023/12/10 12:15:05;;;;;;;6.05;2.60;;;8.00;99.90;;;;;;5033502;28;20206;-63
2023/12/10 12:17:31;;;;;;;4.68;2.03;;;8.00;99.90;;;;;;5033877;28;20212;-62
2023/12/10 12:20:13;;;;;;;9.07;2.60;;;8.00;99.90;;;;;;5033775;28;20205;-62
2023/12/10 12:22:41;;;;;;;8.43;2.10;;;8.00;99.90;;;;;;5033302;28;20232;-63
2023/12/10 12:25:08;;;;;;;5.82;2.30;;;8.10;99.90;;;;;;5033320;28;20672;-62
2023/12/10 12:27:37;;;;;;;6.60;2.25;;;8.10;99.90;;;;;;5033952;28;20315;-60
2023/12/10 12:30:05;;;;;;;9.43;2.58;;;8.10;99.90;;;;;;5033637;28;20230;-62
2023/12/10 12:32:31;;;;;;;11.93;3.08;;;8.10;99.90;;;;;;5034161;28;20229;-65
2023/12/10 12:34:58;;;;;;;6.25;2.50;;;8.20;99.90;;;;;;5038077;28;20222;-63
2023/12/10 12:37:25;;;;;;;8.75;3.50;;;8.20;99.90;;;;;;5037918;28;20202;-62
2023/12/10 12:39:54;;;;;;;8.75;3.17;;;8.20;99.90;;;;;;5037548;28;20305;-61
2023/12/10 12:42:22;;;;;;;9.32;3.30;;;8.20;99.90;;;;;;5037215;28;20249;-64
2023/12/10 12:44:51;;;;;;;13.40;3.65;;;8.30;99.90;;;;;;5037101;28;20750;-64
2023/12/10 12:47:18;;;;;;;9.88;2.70;;;8.30;99.90;;;;;;5037018;28;20206;-62
2023/12/10 12:49:45;;;;;;;7.50;2.22;;;8.40;99.90;;;;;;5036781;28;20206;-69
2023/12/10 12:52:12;;;;;;;8.30;2.85;;;8.40;99.90;;;;;;5037235;28;20313;-65
2023/12/10 12:54:38;;;;;;;10.27;2.80;;;8.40;99.90;;;;;;5037235;28;20218;-64